Time;durP1;ratioP1;P1;durP2;ratioP2;P2;SDS_P1;SDS_P2;PMS_P1;PMS_P2;Temp;Humidity;BMP_temperature;BMP_pressure;BME280_temperature;BME280_humidity;BME280_pressure;Samples;Min_cycle;Max_cycle;Signal;HPM_P1;HPM_P2
2021/08/18 00:00:40;;;;;;;4.85;4.28;;;10.30;99.90;;;;;;4973130;28;20485;-76
2021/08/18 00:03:06;;;;;;;6.47;4.78;;;10.30;99.90;;;;;;4973093;28;20361;-76
2021/08/18 00:05:32;;;;;;;6.28;4.80;;;10.20;99.90;;;;;;4971730;28;20034;-76
2021/08/18 00:07:57;;;;;;;5.13;4.47;;;10.20;99.90;;;;;;4973002;28;20023;-76
2021/08/18 00:10:26;;;;;;;6.05;4.78;;;10.20;99.90;;;;;;4971055;28;20018;-76
2021/08/18 00:12:52;;;;;;;8.50;5.10;;;10.20;99.90;;;;;;4971673;28;20026;-76
2021/08/18 00:15:18;;;;;;;5.90;4.82;;;10.20;99.90;;;;;;4972852;28;20443;-76
2021/08/18 00:17:44;;;;;;;6.93;4.53;;;10.20;99.90;;;;;;4971275;28;20023;-76
2021/08/18 00:20:11;;;;;;;5.47;4.15;;;10.20;99.90;;;;;;4972959;28;20039;-75
2021/08/18 00:22:37;;;;;;;6.00;4.40;;;10.20;99.90;;;;;;4969816;28;20113;-75
2021/08/18 00:25:04;;;;;;;7.32;4.28;;;10.20;99.90;;;;;;4972977;28;20102;-77
2021/08/18 00:27:30;;;;;;;4.65;4.18;;;10.20;99.90;;;;;;4972587;28;20117;-76
2021/08/18 00:29:55;;;;;;;5.70;4.63;;;10.20;99.90;;;;;;4971525;28;20061;-76
2021/08/18 00:32:21;;;;;;;5.72;4.07;;;10.10;99.90;;;;;;4987494;28;20030;-76
2021/08/18 00:34:47;;;;;;;5.55;5.03;;;10.00;99.90;;;;;;4972696;28;20042;-77
2021/08/18 00:37:12;;;;;;;4.97;4.53;;;10.00;99.90;;;;;;4971425;28;20034;-76
2021/08/18 00:39:38;;;;;;;6.18;5.45;;;10.00;99.90;;;;;;4983393;28;20393;-75
2021/08/18 00:42:04;;;;;;;5.85;4.93;;;10.00;99.90;;;;;;4953390;28;20023;-75
2021/08/18 00:44:32;;;;;;;5.35;4.85;;;9.90;99.90;;;;;;4968020;28;20019;-75
2021/08/18 00:46:59;;;;;;;5.13;4.63;;;9.90;99.90;;;;;;4953280;28;20060;-75
2021/08/18 00:49:26;;;;;;;5.35;4.75;;;9.90;99.90;;;;;;4953143;28;20034;-75
2021/08/18 00:51:56;;;;;;;4.90;4.32;;;9.80;99.90;;;;;;4967870;28;20019;-75
2021/08/18 00:54:23;;;;;;;5.78;4.85;;;9.80;99.90;;;;;;4953011;28;20081;-75
2021/08/18 00:56:49;;;;;;;5.43;4.13;;;9.90;99.90;;;;;;4967903;28;20118;-75
2021/08/18 00:59:15;;;;;;;4.95;4.20;;;9.80;99.90;;;;;;4952960;28;20031;-76
2021/08/18 01:01:42;;;;;;;7.25;4.82;;;9.80;99.90;;;;;;4952738;28;20110;-76
2021/08/18 01:04:08;;;;;;;6.35;4.60;;;9.90;99.90;;;;;;4967754;28;20026;-75
2021/08/18 01:06:41;;;;;;;9.20;5.00;;;9.90;99.90;;;;;;4967694;28;20027;-76
2021/08/18 01:09:13;;;;;;;7.03;4.65;;;9.90;99.90;;;;;;4951679;28;20029;-78
2021/08/18 01:11:41;;;;;;;7.30;5.28;;;9.90;99.90;;;;;;4986088;28;20031;-78
2021/08/18 01:14:08;;;;;;;5.90;4.30;;;9.90;99.90;;;;;;4970789;28;20164;-78
2021/08/18 01:16:40;;;;;;;5.75;4.60;;;9.90;99.90;;;;;;4970721;28;20293;-78
2021/08/18 01:19:07;;;;;;;7.47;5.07;;;10.00;99.90;;;;;;4970822;28;20023;-78
2021/08/18 01:21:40;;;;;;;8.82;5.47;;;9.90;99.90;;;;;;4952878;28;20027;-78
2021/08/18 01:24:07;;;;;;;7.95;5.53;;;10.10;99.90;;;;;;4951463;28;20097;-78
2021/08/18 01:26:33;;;;;;;7.10;5.57;;;10.10;99.90;;;;;;4967370;28;20054;-78
2021/08/18 01:29:00;;;;;;;8.55;5.63;;;10.10;99.90;;;;;;4952638;28;20067;-78
2021/08/18 01:31:26;;;;;;;8.50;5.78;;;10.10;99.90;;;;;;4952435;28;20023;-78
2021/08/18 01:33:52;;;;;;;6.40;5.57;;;10.10;99.90;;;;;;4959773;28;20027;-77
2021/08/18 01:36:19;;;;;;;6.88;5.53;;;10.10;99.90;;;;;;4970530;28;20038;-76
2021/08/18 01:38:45;;;;;;;6.97;5.50;;;10.10;99.90;;;;;;4970271;28;20023;-76
2021/08/18 01:41:11;;;;;;;7.88;5.57;;;10.10;99.90;;;;;;4986578;28;20023;-76
2021/08/18 01:43:36;;;;;;;9.27;5.43;;;10.20;99.90;;;;;;4971298;28;20370;-76
2021/08/18 01:46:03;;;;;;;6.15;5.25;;;10.20;99.90;;;;;;4971648;28;20463;-76
2021/08/18 01:48:30;;;;;;;10.85;6.05;;;10.20;99.90;;;;;;4971441;28;20078;-76
2021/08/18 01:50:57;;;;;;;8.30;5.40;;;10.20;99.90;;;;;;4970339;28;20027;-76
2021/08/18 01:53:33;;;;;;;7.22;5.35;;;10.20;99.90;;;;;;4970220;28;20080;-76
2021/08/18 01:56:06;;;;;;;9.93;5.85;;;10.20;99.90;;;;;;4986455;28;20034;-76
2021/08/18 01:58:35;;;;;;;8.75;5.38;;;10.20;99.90;;;;;;4970073;28;20019;-76
2021/08/18 02:01:02;;;;;;;9.68;6.57;;;10.30;99.90;;;;;;4970245;28;20027;-76
2021/08/18 02:03:27;;;;;;;7.78;6.40;;;10.30;99.90;;;;;;4968097;28;20523;-76
2021/08/18 02:05:53;;;;;;;7.63;5.95;;;10.30;99.90;;;;;;4952174;28;20031;-76
2021/08/18 02:08:19;;;;;;;8.15;5.40;;;10.30;99.90;;;;;;4952008;28;20113;-76
2021/08/18 02:10:44;;;;;;;9.13;5.90;;;10.30;99.90;;;;;;4950788;28;20046;-76
2021/08/18 02:13:11;;;;;;;10.30;6.88;;;10.30;99.90;;;;;;4970526;28;20031;-76
2021/08/18 02:15:37;;;;;;;8.52;5.90;;;10.40;99.90;;;;;;4956993;28;20481;-76
2021/08/18 02:18:04;;;;;;;6.80;6.05;;;10.40;99.90;;;;;;4973214;28;20122;-76
2021/08/18 02:20:33;;;;;;;7.90;5.80;;;10.40;99.90;;;;;;4958224;28;20031;-76
2021/08/18 02:22:59;;;;;;;8.02;5.55;;;10.40;99.90;;;;;;4958379;28;20484;-76
2021/08/18 02:25:25;;;;;;;8.35;5.60;;;10.40;99.90;;;;;;4956951;28;20019;-76
2021/08/18 02:27:52;;;;;;;5.45;4.68;;;10.30;99.90;;;;;;4973037;28;20477;-76
2021/08/18 02:30:21;;;;;;;9.15;4.78;;;10.20;99.90;;;;;;4980505;28;20046;-76
2021/08/18 02:32:48;;;;;;;6.03;4.97;;;10.20;99.90;;;;;;4977465;28;20023;-76
2021/08/18 02:35:14;;;;;;;10.45;6.35;;;10.10;99.90;;;;;;4976118;28;20073;-76
2021/08/18 02:37:41;;;;;;;7.68;5.75;;;10.20;99.90;;;;;;4976089;28;20031;-76
2021/08/18 02:40:09;;;;;;;6.10;4.82;;;10.20;99.90;;;;;;4976117;28;20119;-76
2021/08/18 02:42:35;;;;;;;6.97;5.95;;;10.20;99.90;;;;;;4977266;28;20034;-76
2021/08/18 02:45:01;;;;;;;7.10;5.40;;;10.20;99.90;;;;;;4977470;28;20031;-75
2021/08/18 02:47:27;;;;;;;13.65;6.63;;;10.20;99.90;;;;;;4975965;28;20031;-75
2021/08/18 02:49:53;;;;;;;7.80;5.28;;;10.30;99.90;;;;;;4977357;28;20029;-76
2021/08/18 02:52:19;;;;;;;9.57;7.15;;;10.30;99.90;;;;;;4974370;28;20038;-76
2021/08/18 02:54:45;;;;;;;9.73;6.22;;;10.30;99.90;;;;;;4975895;28;20129;-76
2021/08/18 02:57:11;;;;;;;10.02;6.72;;;10.30;99.90;;;;;;4977289;28;20094;-76
2021/08/18 02:59:36;;;;;;;10.65;6.63;;;10.40;99.90;;;;;;4975603;28;20358;-76
2021/08/18 03:02:02;;;;;;;9.32;6.80;;;10.40;99.90;;;;;;4974987;28;20018;-76
2021/08/18 03:04:28;;;;;;;9.60;6.85;;;10.40;99.90;;;;;;4977014;28;20031;-77
2021/08/18 03:06:54;;;;;;;9.15;7.30;;;10.40;99.90;;;;;;4977064;28;20049;-76
2021/08/18 03:09:21;;;;;;;11.68;6.63;;;10.40;99.90;;;;;;4975740;28;20026;-76
2021/08/18 03:11:47;;;;;;;10.15;7.10;;;10.40;99.90;;;;;;4977052;28;20030;-76
2021/08/18 03:14:13;;;;;;;8.05;6.30;;;10.40;99.90;;;;;;4975645;28;20039;-76
2021/08/18 03:16:38;;;;;;;9.52;7.38;;;10.40;99.90;;;;;;4976990;28;20077;-76
2021/08/18 03:19:04;;;;;;;11.18;7.45;;;10.50;99.90;;;;;;4976979;28;20031;-76
2021/08/18 03:21:29;;;;;;;17.00;8.82;;;10.50;99.90;;;;;;4974935;28;20038;-76
2021/08/18 03:23:55;;;;;;;17.00;9.60;;;10.50;99.90;;;;;;4974547;28;20075;-75
2021/08/18 03:26:21;;;;;;;14.77;8.75;;;10.50;99.90;;;;;;4972468;28;20019;-76
2021/08/18 03:28:46;;;;;;;13.90;8.30;;;10.60;99.90;;;;;;4972050;28;20151;-76
2021/08/18 03:31:12;;;;;;;12.88;8.18;;;10.60;99.90;;;;;;4973629;28;20031;-76
2021/08/18 03:33:38;;;;;;;12.55;7.82;;;10.70;99.90;;;;;;4972295;28;20031;-76
2021/08/18 03:36:03;;;;;;;14.50;7.90;;;10.70;99.90;;;;;;4973533;28;20039;-76
2021/08/18 03:38:29;;;;;;;12.57;7.30;;;10.70;99.90;;;;;;4955321;28;20040;-76
2021/08/18 03:40:55;;;;;;;12.50;7.65;;;10.80;99.90;;;;;;4969192;28;20020;-76
2021/08/18 03:43:21;;;;;;;14.10;9.57;;;10.80;99.90;;;;;;4954080;28;20462;-76
2021/08/18 03:45:47;;;;;;;23.67;8.60;;;10.80;99.90;;;;;;4954031;28;20023;-76
2021/08/18 03:48:13;;;;;;;13.95;7.95;;;10.80;99.90;;;;;;4952819;28;20035;-76
2021/08/18 03:50:38;;;;;;;13.48;7.82;;;10.80;99.90;;;;;;4968913;28;20409;-76
2021/08/18 03:53:04;;;;;;;11.00;6.93;;;10.90;99.90;;;;;;4954025;28;20382;-76
2021/08/18 03:55:30;;;;;;;13.18;7.88;;;10.90;99.90;;;;;;4953821;28;20043;-76
2021/08/18 03:57:56;;;;;;;14.48;7.60;;;10.90;99.90;;;;;;4964387;28;20046;-76
2021/08/18 04:00:21;;;;;;;13.10;8.52;;;10.90;99.90;;;;;;4973206;28;20020;-77
2021/08/18 04:02:47;;;;;;;12.75;8.40;;;10.90;99.90;;;;;;4972009;28;20034;-75
2021/08/18 04:05:14;;;;;;;13.20;7.35;;;11.00;99.90;;;;;;4973138;28;20031;-77
2021/08/18 04:07:40;;;;;;;13.43;7.75;;;11.00;99.90;;;;;;4973017;28;20031;-76
2021/08/18 04:10:07;;;;;;;16.83;8.85;;;11.00;99.90;;;;;;4971873;28;20015;-76
2021/08/18 04:12:54;;;;;;;16.00;8.45;;;11.00;99.90;;;;;;4987848;28;20397;-76
2021/08/18 04:15:24;;;;;;;20.70;9.00;;;11.00;99.90;;;;;;4969985;28;20115;-76
2021/08/18 04:17:50;;;;;;;12.25;7.55;;;11.00;99.90;;;;;;4969041;28;20035;-77
2021/08/18 04:20:16;;;;;;;11.70;7.22;;;11.10;99.90;;;;;;4971025;28;20144;-76
2021/08/18 04:22:42;;;;;;;13.07;8.60;;;11.20;99.90;;;;;;4971543;28;20121;-76
2021/08/18 04:25:12;;;;;;;13.85;8.20;;;11.20;99.90;;;;;;4971281;28;20473;-76
2021/08/18 04:27:38;;;;;;;14.20;8.95;;;11.20;99.90;;;;;;4970828;28;20547;-75
2021/08/18 04:30:06;;;;;;;18.13;9.32;;;11.10;99.90;;;;;;4969756;28;20034;-76
2021/08/18 04:32:32;;;;;;;17.98;8.20;;;11.10;99.90;;;;;;4970762;28;20030;-76
2021/08/18 04:34:58;;;;;;;15.45;8.02;;;11.10;99.90;;;;;;4972312;28;20035;-76
2021/08/18 04:37:24;;;;;;;13.23;8.30;;;11.10;99.90;;;;;;4987210;28;20476;-76
2021/08/18 04:39:49;;;;;;;12.20;7.60;;;11.10;99.90;;;;;;4972553;28;20045;-75
2021/08/18 04:42:15;;;;;;;15.65;7.90;;;11.20;99.90;;;;;;4969578;28;20104;-76
2021/08/18 04:44:40;;;;;;;9.82;6.88;;;11.20;99.90;;;;;;4972609;28;20080;-77
2021/08/18 04:47:06;;;;;;;11.23;6.78;;;11.20;99.90;;;;;;4971208;28;20027;-76
2021/08/18 04:49:32;;;;;;;13.40;6.90;;;11.20;99.90;;;;;;4972382;28;20388;-76
2021/08/18 04:51:57;;;;;;;13.30;7.45;;;11.30;99.90;;;;;;4972501;28;20098;-75
2021/08/18 04:54:23;;;;;;;13.40;8.20;;;11.30;99.90;;;;;;4971012;28;20500;-76
2021/08/18 04:56:49;;;;;;;11.55;7.85;;;11.40;99.90;;;;;;4972375;28;20027;-76
2021/08/18 04:59:14;;;;;;;13.43;8.30;;;11.40;99.90;;;;;;4970960;28;20026;-76
2021/08/18 05:01:40;;;;;;;15.75;8.65;;;11.50;99.90;;;;;;4963461;28;20031;-76
2021/08/18 05:04:07;;;;;;;11.73;7.53;;;11.50;99.90;;;;;;4952972;28;20440;-75
2021/08/18 05:06:33;;;;;;;14.50;7.60;;;11.50;99.90;;;;;;4952859;28;20081;-76
2021/08/18 05:08:59;;;;;;;13.15;8.02;;;11.60;99.90;;;;;;4967205;28;20035;-76
2021/08/18 05:11:24;;;;;;;12.05;7.85;;;11.70;99.90;;;;;;4970781;28;20392;-76
2021/08/18 05:13:50;;;;;;;12.52;8.25;;;11.70;99.90;;;;;;4971996;28;20027;-76
2021/08/18 05:16:16;;;;;;;14.55;7.95;;;11.80;99.90;;;;;;4969653;28;20100;-76
2021/08/18 05:18:41;;;;;;;12.02;7.53;;;11.80;99.90;;;;;;4970675;28;20396;-76
2021/08/18 05:21:07;;;;;;;10.60;7.20;;;11.90;99.90;;;;;;4970257;28;20047;-75
2021/08/18 05:23:33;;;;;;;11.48;7.25;;;12.00;99.90;;;;;;4986701;28;20029;-76
2021/08/18 05:25:58;;;;;;;13.10;7.13;;;12.10;99.90;;;;;;4970528;28;20491;-76
2021/08/18 05:28:24;;;;;;;10.75;6.45;;;12.10;99.90;;;;;;4969346;28;20031;-76
2021/08/18 05:30:50;;;;;;;11.40;7.10;;;12.10;99.90;;;;;;4970639;28;20042;-76
2021/08/18 05:33:16;;;;;;;15.10;8.60;;;12.20;99.90;;;;;;4971675;28;20114;-76
2021/08/18 05:35:41;;;;;;;10.40;6.65;;;12.30;99.90;;;;;;4971766;28;20109;-76
2021/08/18 05:38:07;;;;;;;10.63;6.85;;;12.30;99.90;;;;;;4955909;28;20357;-77
2021/08/18 05:40:33;;;;;;;11.25;6.22;;;12.40;99.90;;;;;;4950489;28;20040;-78
2021/08/18 05:42:59;;;;;;;11.27;6.68;;;12.40;99.90;;;;;;4965908;28;20023;-76
2021/08/18 05:45:24;;;;;;;13.40;7.28;;;12.40;99.90;;;;;;4969964;28;20488;-77
2021/08/18 05:47:50;;;;;;;11.93;7.00;;;12.40;99.90;;;;;;5054181;28;20055;-76
2021/08/18 05:50:17;;;;;;;11.93;7.55;;;12.40;99.90;;;;;;4970059;28;20080;-76
2021/08/18 05:52:42;;;;;;;12.45;6.90;;;12.40;99.90;;;;;;4969273;28;20480;-76
2021/08/18 05:55:09;;;;;;;11.65;7.55;;;12.40;99.90;;;;;;4962940;28;20038;-77
2021/08/18 05:57:34;;;;;;;11.85;7.07;;;12.40;99.90;;;;;;4965637;28;20313;-76
2021/08/18 06:00:00;;;;;;;12.88;6.57;;;12.50;99.90;;;;;;4982261;28;20027;-76
2021/08/18 06:02:26;;;;;;;11.88;7.07;;;12.60;99.90;;;;;;4982945;28;20023;-76
2021/08/18 06:04:52;;;;;;;13.27;8.38;;;12.60;99.90;;;;;;4969399;28;20042;-77
2021/08/18 06:07:18;;;;;;;12.43;7.40;;;12.70;99.90;;;;;;4983532;28;20084;-77
2021/08/18 06:09:44;;;;;;;13.18;7.20;;;12.80;99.90;;;;;;4984797;28;20051;-77
2021/08/18 06:12:09;;;;;;;11.60;7.78;;;12.80;99.90;;;;;;4970067;28;20763;-77
2021/08/18 06:14:35;;;;;;;11.68;7.32;;;12.70;99.90;;;;;;4969814;28;20118;-77
2021/08/18 06:17:01;;;;;;;11.50;7.78;;;12.70;99.90;;;;;;4971248;28;20038;-77
2021/08/18 06:19:26;;;;;;;15.88;7.60;;;12.70;99.90;;;;;;4966322;28;20038;-77
2021/08/18 06:21:52;;;;;;;11.10;7.25;;;12.80;99.90;;;;;;4948675;28;20019;-77
2021/08/18 06:26:50;;;;;;;9.38;6.55;;;12.90;99.90;;;;;;4950282;28;20130;-77
2021/08/18 06:29:17;;;;;;;12.27;6.70;;;13.00;99.90;;;;;;4950122;28;20098;-77
2021/08/18 06:31:43;;;;;;;13.77;7.10;;;13.10;99.90;;;;;;4948834;28;20037;-77
2021/08/18 06:34:09;;;;;;;14.13;7.55;;;13.10;99.90;;;;;;4964815;28;20114;-77
2021/08/18 06:36:34;;;;;;;11.32;6.75;;;13.10;99.90;;;;;;4965883;28;20127;-77
2021/08/18 06:39:00;;;;;;;11.25;6.97;;;13.10;99.90;;;;;;4966579;28;20475;-77
2021/08/18 06:41:25;;;;;;;12.38;7.57;;;13.20;99.90;;;;;;4964293;28;20030;-78
2021/08/18 06:43:51;;;;;;;14.80;6.85;;;13.10;99.90;;;;;;4969658;28;20027;-77
2021/08/18 06:46:17;;;;;;;13.50;7.45;;;13.10;99.90;;;;;;4970862;28;20027;-77
2021/08/18 06:48:43;;;;;;;13.90;7.65;;;13.30;99.90;;;;;;4969591;28;20031;-77
2021/08/18 06:51:08;;;;;;;11.63;6.95;;;13.30;99.90;;;;;;4969341;28;20034;-77
2021/08/18 06:53:34;;;;;;;10.70;7.13;;;13.40;99.90;;;;;;4985549;28;20027;-77
2021/08/18 06:55:59;;;;;;;14.65;7.40;;;13.60;99.90;;;;;;4970801;28;20053;-78
2021/08/18 06:58:25;;;;;;;13.38;8.40;;;13.70;99.90;;;;;;4969819;28;20109;-77
2021/08/18 07:00:51;;;;;;;12.23;7.80;;;13.80;99.90;;;;;;4972993;28;20051;-77
2021/08/18 07:03:16;;;;;;;13.75;7.30;;;13.90;99.90;;;;;;4988863;28;20041;-77
2021/08/18 07:05:42;;;;;;;14.07;7.53;;;14.00;99.90;;;;;;4966959;28;20031;-76
2021/08/18 07:08:07;;;;;;;10.93;7.13;;;14.20;99.90;;;;;;4954754;28;20023;-77
2021/08/18 07:10:33;;;;;;;12.95;7.30;;;14.30;99.90;;;;;;4954618;28;20016;-77
2021/08/18 07:12:58;;;;;;;11.32;7.00;;;14.40;99.90;;;;;;4954584;28;20127;-77
2021/08/18 07:15:25;;;;;;;12.00;7.13;;;14.60;99.90;;;;;;4954543;28;20035;-76
2021/08/18 07:17:50;;;;;;;9.95;6.72;;;14.60;99.90;;;;;;4969384;28;20035;-77
2021/08/18 07:20:16;;;;;;;13.98;8.50;;;14.80;99.90;;;;;;4969313;28;20023;-77
2021/08/18 07:22:42;;;;;;;12.52;7.18;;;14.70;99.90;;;;;;4954433;28;20035;-77
2021/08/18 07:25:08;;;;;;;13.98;7.28;;;14.90;99.90;;;;;;4954544;28;20469;-77
2021/08/18 07:27:33;;;;;;;12.35;8.10;;;14.90;99.90;;;;;;4954264;28;20106;-77
2021/08/18 07:29:59;;;;;;;15.20;8.23;;;15.10;99.90;;;;;;4954516;28;20023;-78
2021/08/18 07:32:26;;;;;;;10.25;6.88;;;15.20;99.90;;;;;;4954300;28;20106;-77
2021/08/18 07:34:51;;;;;;;15.32;7.22;;;15.30;99.90;;;;;;4973042;28;20039;-77
2021/08/18 07:37:17;;;;;;;14.02;7.68;;;15.50;99.90;;;;;;4954224;28;20421;-77
2021/08/18 07:39:44;;;;;;;15.52;6.82;;;15.60;99.90;;;;;;4954540;28;20473;-77
2021/08/18 07:42:11;;;;;;;10.23;7.07;;;15.90;99.90;;;;;;4952914;28;20023;-77
2021/08/18 07:44:38;;;;;;;13.20;7.47;;;15.90;99.90;;;;;;4952862;29;20050;-77
2021/08/18 07:47:04;;;;;;;10.35;6.30;;;16.10;99.90;;;;;;4952928;28;20110;-77
2021/08/18 07:49:29;;;;;;;12.75;7.53;;;16.20;99.90;;;;;;4952923;29;20518;-77
2021/08/18 07:51:55;;;;;;;12.73;6.88;;;16.50;99.90;;;;;;4954130;28;20115;-77
2021/08/18 07:54:21;;;;;;;14.65;7.97;;;16.60;99.90;;;;;;4953999;28;20110;-77
2021/08/18 07:56:46;;;;;;;14.65;8.13;;;16.60;99.90;;;;;;4953986;28;20027;-78
2021/08/18 07:59:12;;;;;;;14.50;7.82;;;16.60;99.90;;;;;;4954166;28;20073;-77
2021/08/18 08:01:37;;;;;;;18.95;10.98;;;16.70;99.90;;;;;;4953911;28;20035;-77
2021/08/18 08:04:03;;;;;;;14.13;9.63;;;16.80;99.90;;;;;;4968765;28;20101;-77
2021/08/18 08:06:29;;;;;;;18.90;9.63;;;16.80;99.90;;;;;;4952523;28;20023;-77
2021/08/18 08:08:55;;;;;;;14.38;8.57;;;16.80;99.90;;;;;;4952618;28;20024;-77
2021/08/18 08:11:20;;;;;;;20.02;10.23;;;16.90;99.90;;;;;;4952842;28;20033;-77
2021/08/18 08:13:46;;;;;;;16.17;8.02;;;16.90;99.90;;;;;;4953709;28;20031;-77
2021/08/18 08:16:11;;;;;;;18.60;8.90;;;16.90;99.90;;;;;;4953673;28;20046;-77
2021/08/18 08:18:37;;;;;;;14.52;8.25;;;16.80;97.50;;;;;;4953605;28;20020;-77
2021/08/18 08:21:03;;;;;;;16.20;10.00;;;16.90;99.90;;;;;;4968479;28;20038;-77
2021/08/18 08:23:28;;;;;;;16.40;8.63;;;16.90;99.90;;;;;;4953534;28;20031;-77
2021/08/18 08:25:54;;;;;;;15.43;7.90;;;17.00;99.90;;;;;;4953661;28;20027;-77
2021/08/18 08:28:20;;;;;;;11.70;7.35;;;17.00;99.70;;;;;;4970033;28;20023;-77
2021/08/18 08:30:48;;;;;;;12.80;7.35;;;17.00;98.80;;;;;;4971465;28;20022;-77
2021/08/18 08:33:14;;;;;;;10.90;7.00;;;17.20;99.90;;;;;;4972660;28;20401;-77
2021/08/18 08:35:41;;;;;;;15.90;8.60;;;17.30;97.50;;;;;;4971455;28;20404;-77
2021/08/18 08:38:07;;;;;;;10.55;6.82;;;17.40;95.70;;;;;;4987613;28;20023;-77
2021/08/18 08:40:33;;;;;;;11.00;6.78;;;17.30;95.80;;;;;;4987415;28;20034;-77
2021/08/18 08:42:59;;;;;;;14.57;7.35;;;17.60;99.90;;;;;;4971402;28;20057;-77
2021/08/18 08:45:26;;;;;;;13.18;7.50;;;17.80;94.30;;;;;;4972534;28;20027;-78
2021/08/18 08:47:52;;;;;;;11.05;8.05;;;18.00;92.70;;;;;;4987448;28;20027;-77
2021/08/18 08:50:18;;;;;;;12.73;7.75;;;18.20;92.20;;;;;;4972545;28;20392;-77
2021/08/18 08:52:44;;;;;;;11.68;7.07;;;18.30;91.10;;;;;;4971231;28;20029;-77
2021/08/18 08:55:10;;;;;;;14.93;7.10;;;18.20;87.80;;;;;;4971118;28;20062;-77
2021/08/18 08:57:52;;;;;;;14.50;7.15;;;18.10;89.40;;;;;;4968173;28;20074;-77
2021/08/18 09:00:20;;;;;;;13.50;8.47;;;18.00;89.50;;;;;;4971530;28;20019;-77
2021/08/18 09:02:47;;;;;;;10.52;7.03;;;17.50;87.70;;;;;;4970853;28;20369;-77
2021/08/18 09:05:26;;;;;;;14.18;6.18;;;17.70;86.60;;;;;;4970063;28;20050;-77
2021/08/18 09:07:59;;;;;;;12.88;7.32;;;17.70;83.20;;;;;;4969887;28;20030;-77
2021/08/18 09:10:25;;;;;;;13.55;7.07;;;18.00;82.70;;;;;;4970895;28;20055;-77
2021/08/18 09:12:50;;;;;;;11.98;7.47;;;18.30;82.00;;;;;;4972048;28;20050;-77
2021/08/18 09:15:21;;;;;;;14.18;8.70;;;18.60;81.00;;;;;;4986954;28;20031;-77
2021/08/18 09:17:49;;;;;;;11.70;7.28;;;18.60;78.00;;;;;;4970737;28;20023;-77
2021/08/18 09:20:23;;;;;;;11.40;7.63;;;18.40;75.90;;;;;;4972022;28;20579;-77
2021/08/18 09:22:51;;;;;;;16.48;8.60;;;18.30;80.10;;;;;;4970573;28;20087;-77
2021/08/18 09:25:24;;;;;;;15.85;8.15;;;18.30;80.50;;;;;;4970677;28;20015;-77
2021/08/18 09:27:59;;;;;;;10.93;6.55;;;18.20;81.90;;;;;;4958443;28;20059;-77
2021/08/18 09:30:30;;;;;;;11.57;7.28;;;18.10;74.90;;;;;;4967426;28;20100;-77
2021/08/18 09:32:58;;;;;;;14.30;7.25;;;18.10;76.20;;;;;;4967397;28;20023;-77
2021/08/18 09:35:26;;;;;;;12.07;7.22;;;18.00;75.00;;;;;;4951147;28;20097;-77
2021/08/18 09:37:57;;;;;;;9.07;6.57;;;18.00;77.80;;;;;;4967241;28;20027;-77
2021/08/18 09:40:25;;;;;;;9.07;5.85;;;18.00;76.90;;;;;;4952956;28;20035;-77
2021/08/18 09:42:52;;;;;;;10.40;6.70;;;17.90;75.90;;;;;;4952472;28;20138;-78
2021/08/18 09:45:20;;;;;;;16.02;7.30;;;17.80;74.90;;;;;;4967218;28;20031;-77
2021/08/18 09:47:56;;;;;;;11.73;7.07;;;17.90;73.10;;;;;;4967115;28;20112;-77
2021/08/18 09:50:24;;;;;;;12.20;7.35;;;17.90;75.50;;;;;;4967164;28;20031;-77
2021/08/18 09:52:51;;;;;;;13.50;6.20;;;18.10;74.60;;;;;;4967103;28;20035;-77
2021/08/18 09:55:24;;;;;;;13.10;7.82;;;17.80;72.90;;;;;;4967003;28;20101;-77
2021/08/18 09:57:51;;;;;;;14.48;7.97;;;18.00;73.10;;;;;;4979888;28;20027;-78
2021/08/18 10:00:18;;;;;;;19.20;8.70;;;17.90;74.40;;;;;;4970266;28;20035;-78
2021/08/18 10:02:44;;;;;;;25.98;14.10;;;17.80;76.30;;;;;;4970154;28;20019;-77
2021/08/18 10:05:10;;;;;;;11.90;8.38;;;17.80;79.80;;;;;;4971445;28;20027;-78
2021/08/18 10:07:36;;;;;;;26.23;14.60;;;17.50;78.40;;;;;;4971537;28;20041;-77
2021/08/18 10:10:03;;;;;;;24.98;13.45;;;17.40;83.10;;;;;;4971414;28;20027;-77
2021/08/18 10:12:30;;;;;;;13.85;8.45;;;17.30;87.10;;;;;;4986113;28;20023;-77
2021/08/18 10:14:56;;;;;;;12.88;8.90;;;17.10;86.40;;;;;;4971298;28;20039;-77
2021/08/18 10:17:21;;;;;;;12.15;8.40;;;17.30;88.80;;;;;;4971208;28;20443;-77
2021/08/18 10:19:52;;;;;;;13.40;7.55;;;17.20;88.20;;;;;;4971293;28;20051;-77
2021/08/18 10:22:28;;;;;;;12.10;7.57;;;17.50;88.00;;;;;;4971210;28;20401;-77
2021/08/18 10:24:54;;;;;;;14.88;8.77;;;17.70;81.80;;;;;;4965729;28;20474;-77
2021/08/18 10:27:45;;;;;;;18.67;10.18;;;18.10;85.90;;;;;;4951803;28;20080;-77
2021/08/18 10:30:22;;;;;;;23.77;13.50;;;18.30;82.30;;;;;;4951947;28;20038;-77
2021/08/18 10:32:48;;;;;;;9.77;7.03;;;18.70;77.60;;;;;;4951806;28;20058;-77
2021/08/18 10:35:35;;;;;;;18.13;8.93;;;18.70;70.00;;;;;;4954707;28;20035;-77
2021/08/18 10:38:28;;;;;;;12.95;8.05;;;18.60;72.20;;;;;;4954955;28;20027;-78
2021/08/18 10:40:54;;;;;;;15.73;8.77;;;18.30;72.30;;;;;;4955257;28;20043;-77
2021/08/18 10:43:52;;;;;;;15.30;8.85;;;18.30;74.50;;;;;;4956103;28;20031;-77
2021/08/18 10:46:18;;;;;;;17.27;8.82;;;18.30;76.40;;;;;;4969917;28;20031;-77
2021/08/18 10:48:55;;;;;;;10.43;7.82;;;18.40;75.40;;;;;;4972323;28;20495;-77
2021/08/18 10:51:39;;;;;;;11.85;8.18;;;18.50;76.60;;;;;;4989154;28;20031;-77
2021/08/18 10:54:30;;;;;;;12.60;7.35;;;18.50;72.70;;;;;;4989216;28;20023;-77
2021/08/18 10:56:59;;;;;;;15.38;9.85;;;18.60;74.60;;;;;;4974211;28;20022;-77
2021/08/18 10:59:36;;;;;;;17.42;9.80;;;18.70;73.90;;;;;;4974082;28;20038;-77
2021/08/18 11:02:08;;;;;;;12.82;8.15;;;19.10;77.60;;;;;;4974117;28;20068;-77
2021/08/18 11:04:43;;;;;;;14.00;8.50;;;18.90;71.60;;;;;;4974078;28;20019;-77
2021/08/18 11:07:10;;;;;;;16.58;9.15;;;18.70;69.70;;;;;;4972904;28;20385;-77
2021/08/18 11:09:53;;;;;;;16.85;9.70;;;18.70;70.90;;;;;;4973988;28;20098;-78
2021/08/18 11:12:41;;;;;;;14.95;8.65;;;18.70;73.10;;;;;;4973962;28;20097;-77
2021/08/18 11:15:18;;;;;;;12.77;9.25;;;18.50;75.00;;;;;;4973906;28;20035;-77
2021/08/18 11:17:49;;;;;;;14.63;9.25;;;18.50;75.90;;;;;;4979303;28;20031;-77
2021/08/18 11:20:20;;;;;;;13.40;8.63;;;18.60;76.30;;;;;;4954547;28;20039;-77
2021/08/18 11:22:52;;;;;;;13.43;8.02;;;18.70;75.50;;;;;;4954732;28;20058;-77
2021/08/18 11:25:19;;;;;;;13.32;9.27;;;18.40;71.80;;;;;;4969392;28;20110;-77
2021/08/18 11:27:52;;;;;;;16.75;9.27;;;18.40;73.90;;;;;;4954456;28;20035;-77
2021/08/18 11:30:33;;;;;;;19.83;10.13;;;18.30;75.20;;;;;;4953158;28;20393;-77
2021/08/18 11:33:18;;;;;;;15.32;9.20;;;18.30;75.70;;;;;;4954523;28;20027;-77
2021/08/18 11:35:44;;;;;;;15.40;9.40;;;18.70;76.10;;;;;;4954253;28;20069;-77
2021/08/18 11:38:10;;;;;;;20.15;9.65;;;18.90;74.80;;;;;;4954209;28;20396;-77
2021/08/18 11:40:37;;;;;;;22.98;10.48;;;19.30;74.70;;;;;;4969100;28;20057;-77
2021/08/18 11:43:03;;;;;;;19.23;10.75;;;19.60;68.50;;;;;;4952978;28;20030;-77
2021/08/18 11:45:31;;;;;;;21.10;10.05;;;19.70;68.80;;;;;;4959524;28;20031;-77
2021/08/18 11:48:11;;;;;;;12.18;7.25;;;19.90;70.10;;;;;;4972165;28;20035;-77
2021/08/18 11:50:38;;;;;;;11.07;6.82;;;19.70;65.60;;;;;;4973401;28;20477;-77
2021/08/18 11:53:08;;;;;;;10.38;7.18;;;19.70;68.70;;;;;;4973357;28;20031;-77
2021/08/18 11:55:35;;;;;;;13.48;8.38;;;19.30;69.10;;;;;;4971967;28;20031;-77
2021/08/18 11:58:04;;;;;;;9.93;7.18;;;19.40;72.90;;;;;;4973323;28;20047;-77
2021/08/18 12:00:31;;;;;;;15.40;8.13;;;19.40;70.00;;;;;;4973120;28;20550;-78
2021/08/18 12:02:59;;;;;;;16.02;9.02;;;19.60;68.90;;;;;;4973171;28;20022;-77
2021/08/18 12:05:29;;;;;;;15.07;9.02;;;19.80;71.00;;;;;;4971747;28;20465;-78
2021/08/18 12:08:11;;;;;;;10.30;6.85;;;20.00;67.90;;;;;;4973128;28;20019;-78
2021/08/18 12:10:42;;;;;;;10.13;5.78;;;20.20;64.80;;;;;;4971902;28;20027;-77
2021/08/18 12:13:16;;;;;;;11.43;6.28;;;20.30;60.80;;;;;;4973106;28;20026;-77
2021/08/18 12:15:47;;;;;;;10.00;6.47;;;20.20;59.00;;;;;;4965547;28;20181;-77
2021/08/18 12:18:33;;;;;;;9.40;7.07;;;20.00;60.80;;;;;;4952409;28;20023;-78
2021/08/18 12:21:24;;;;;;;9.43;6.72;;;19.60;62.10;;;;;;4952516;28;20015;-77
2021/08/18 12:23:55;;;;;;;12.05;6.97;;;19.30;63.70;;;;;;4968664;28;20507;-77
2021/08/18 12:26:39;;;;;;;12.23;7.63;;;19.20;66.30;;;;;;4952367;28;20114;-77
2021/08/18 12:29:06;;;;;;;10.82;7.20;;;19.50;69.00;;;;;;4972660;28;20476;-77
2021/08/18 12:31:57;;;;;;;8.07;6.07;;;19.40;66.30;;;;;;4972659;28;20105;-77
2021/08/18 12:34:38;;;;;;;8.85;6.47;;;19.30;63.30;;;;;;4972615;28;20111;-77
2021/08/18 12:37:10;;;;;;;9.95;6.45;;;19.50;67.20;;;;;;4971448;28;20383;-77
2021/08/18 12:39:44;;;;;;;8.18;5.55;;;19.40;64.90;;;;;;4972964;28;20031;-78
2021/08/18 12:42:25;;;;;;;10.43;5.80;;;19.50;66.70;;;;;;4971737;28;20039;-77
2021/08/18 12:45:17;;;;;;;9.93;5.57;;;19.50;65.60;;;;;;4969249;28;20034;-77
2021/08/18 12:47:55;;;;;;;8.30;5.97;;;19.30;63.10;;;;;;4967227;28;20030;-77